sensor_id;sensor_type;location;lat;lon;timestamp;pressure;altitude;pressure_sealevel;temperature;humidity
76603;BME280;65075;48.390;17.598;2023-02-13T00:00:32;101833.66;;;7.21;53.59
76603;BME280;65075;48.390;17.598;2023-02-13T00:02:58;101839.53;;;6.88;55.31
76603;BME280;65075;48.390;17.598;2023-02-13T00:05:24;101850.69;;;6.79;55.73
76603;BME280;65075;48.390;17.598;2023-02-13T00:07:49;101846.63;;;7.04;54.89
76603;BME280;65075;48.390;17.598;2023-02-13T00:10:15;101851.31;;;7.31;54.07
76603;BME280;65075;48.390;17.598;2023-02-13T00:12:40;101841.50;;;7.52;53.57
76603;BME280;65075;48.390;17.598;2023-02-13T00:15:06;101853.78;;;6.47;57.13
76603;BME280;65075;48.390;17.598;2023-02-13T00:17:32;101847.75;;;5.93;58.65
76603;BME280;65075;48.390;17.598;2023-02-13T00:19:58;101855.06;;;7.30;53.75
76603;BME280;65075;48.390;17.598;2023-02-13T00:22:23;101846.78;;;7.81;52.14
76603;BME280;65075;48.390;17.598;2023-02-13T00:24:49;101842.44;;;7.23;53.21
76603;BME280;65075;48.390;17.598;2023-02-13T00:27:14;101852.78;;;7.34;52.97
76603;BME280;65075;48.390;17.598;2023-02-13T00:29:40;101854.09;;;5.77;58.93
76603;BME280;65075;48.390;17.598;2023-02-13T00:32:06;101830.88;;;7.35;53.41
76603;BME280;65075;48.390;17.598;2023-02-13T00:34:31;101853.06;;;7.03;54.33
76603;BME280;65075;48.390;17.598;2023-02-13T00:36:57;101849.13;;;7.63;52.81
76603;BME280;65075;48.390;17.598;2023-02-13T00:39:22;101857.09;;;7.64;52.16
76603;BME280;65075;48.390;17.598;2023-02-13T00:41:48;101853.63;;;7.13;53.88
76603;BME280;65075;48.390;17.598;2023-02-13T00:44:13;101857.38;;;7.12;54.75
76603;BME280;65075;48.390;17.598;2023-02-13T00:46:39;101859.31;;;5.41;59.04
76603;BME280;65075;48.390;17.598;2023-02-13T00:49:05;101856.28;;;6.92;54.79
76603;BME280;65075;48.390;17.598;2023-02-13T00:51:30;101851.56;;;6.65;55.65
76603;BME280;65075;48.390;17.598;2023-02-13T00:53:56;101857.78;;;6.51;55.98
76603;BME280;65075;48.390;17.598;2023-02-13T00:56:22;101861.81;;;6.69;54.66
76603;BME280;65075;48.390;17.598;2023-02-13T00:58:48;101855.47;;;7.70;52.05
76603;BME280;65075;48.390;17.598;2023-02-13T01:01:13;101859.09;;;7.20;52.83
76603;BME280;65075;48.390;17.598;2023-02-13T01:03:39;101839.59;;;7.31;53.61
76603;BME280;65075;48.390;17.598;2023-02-13T01:06:06;101858.22;;;7.34;54.05
76603;BME280;65075;48.390;17.598;2023-02-13T01:08:31;101861.19;;;6.67;55.46
76603;BME280;65075;48.390;17.598;2023-02-13T01:10:57;101855.91;;;4.39;62.33
76603;BME280;65075;48.390;17.598;2023-02-13T01:13:23;101859.94;;;1.00;72.67
76603;BME280;65075;48.390;17.598;2023-02-13T01:15:49;101860.88;;;1.61;71.80
76603;BME280;65075;48.390;17.598;2023-02-13T01:18:17;101865.38;;;0.90;75.57
76603;BME280;65075;48.390;17.598;2023-02-13T01:20:43;101863.00;;;1.76;72.70
76603;BME280;65075;48.390;17.598;2023-02-13T01:23:10;101863.75;;;0.80;76.08
76603;BME280;65075;48.390;17.598;2023-02-13T01:25:40;101861.44;;;2.84;68.19
76603;BME280;65075;48.390;17.598;2023-02-13T01:28:05;101861.59;;;2.15;70.17
76603;BME280;65075;48.390;17.598;2023-02-13T01:30:31;101858.91;;;2.15;71.18
76603;BME280;65075;48.390;17.598;2023-02-13T01:32:57;101859.78;;;1.54;74.51
76603;BME280;65075;48.390;17.598;2023-02-13T01:35:22;101851.78;;;4.04;66.61
76603;BME280;65075;48.390;17.598;2023-02-13T01:37:48;101856.31;;;4.03;66.17
76603;BME280;65075;48.390;17.598;2023-02-13T01:40:14;101862.16;;;5.40;60.50
76603;BME280;65075;48.390;17.598;2023-02-13T01:42:39;101848.31;;;4.34;63.77
76603;BME280;65075;48.390;17.598;2023-02-13T01:45:19;101854.44;;;3.07;67.23
76603;BME280;65075;48.390;17.598;2023-02-13T01:47:52;101844.13;;;2.19;69.94
76603;BME280;65075;48.390;17.598;2023-02-13T01:50:28;101852.78;;;2.05;71.46
76603;BME280;65075;48.390;17.598;2023-02-13T01:53:06;101844.34;;;2.00;71.42
76603;BME280;65075;48.390;17.598;2023-02-13T01:55:45;101832.16;;;2.47;71.47
76603;BME280;65075;48.390;17.598;2023-02-13T01:58:17;101820.97;;;2.34;69.65
76603;BME280;65075;48.390;17.598;2023-02-13T02:00:45;101840.41;;;2.20;69.83
76603;BME280;65075;48.390;17.598;2023-02-13T02:03:26;101840.06;;;2.91;67.31
76603;BME280;65075;48.390;17.598;2023-02-13T02:05:56;101833.34;;;2.19;68.59
76603;BME280;65075;48.390;17.598;2023-02-13T02:08:23;101840.94;;;1.72;71.61
76603;BME280;65075;48.390;17.598;2023-02-13T02:10:49;101835.00;;;1.68;71.12
76603;BME280;65075;48.390;17.598;2023-02-13T02:13:19;101828.66;;;1.95;70.61
76603;BME280;65075;48.390;17.598;2023-02-13T02:15:47;101815.03;;;2.56;68.17
76603;BME280;65075;48.390;17.598;2023-02-13T02:18:19;101823.16;;;4.42;62.10
76603;BME280;65075;48.390;17.598;2023-02-13T02:20:59;101832.06;;;4.50;61.80
76603;BME280;65075;48.390;17.598;2023-02-13T02:32:15;101829.22;;;5.36;58.38
76603;BME280;65075;48.390;17.598;2023-02-13T02:38:02;101822.91;;;3.88;62.38
76603;BME280;65075;48.390;17.598;2023-02-13T02:41:00;101819.16;;;4.22;61.20
76603;BME280;65075;48.390;17.598;2023-02-13T02:46:26;101806.22;;;5.55;57.45
76603;BME280;65075;48.390;17.598;2023-02-13T02:54:33;101807.63;;;5.88;56.87
76603;BME280;65075;48.390;17.598;2023-02-13T02:57:30;101804.34;;;6.45;55.52
76603;BME280;65075;48.390;17.598;2023-02-13T03:00:19;101795.97;;;3.64;63.55
76603;BME280;65075;48.390;17.598;2023-02-13T03:03:21;101806.53;;;5.14;59.70
76603;BME280;65075;48.390;17.598;2023-02-13T03:06:14;101806.25;;;5.92;57.25
76603;BME280;65075;48.390;17.598;2023-02-13T03:08:51;101793.75;;;6.50;55.59
76603;BME280;65075;48.390;17.598;2023-02-13T03:11:38;101802.25;;;6.17;55.49
76603;BME280;65075;48.390;17.598;2023-02-13T03:14:26;101811.28;;;5.12;58.73
76603;BME280;65075;48.390;17.598;2023-02-13T03:16:54;101807.56;;;4.05;61.61
76603;BME280;65075;48.390;17.598;2023-02-13T03:19:56;101806.22;;;3.28;63.64
76603;BME280;65075;48.390;17.598;2023-02-13T03:23:12;101824.59;;;1.65;68.44
76603;BME280;65075;48.390;17.598;2023-02-13T03:28:42;101819.28;;;4.75;58.49
76603;BME280;65075;48.390;17.598;2023-02-13T03:31:35;101817.59;;;4.74;58.20
76603;BME280;65075;48.390;17.598;2023-02-13T03:34:13;101811.47;;;3.46;61.48
76603;BME280;65075;48.390;17.598;2023-02-13T03:36:53;101811.41;;;4.19;60.93
76603;BME280;65075;48.390;17.598;2023-02-13T03:39:58;101812.91;;;5.22;57.47
76603;BME280;65075;48.390;17.598;2023-02-13T03:45:02;101821.59;;;5.77;55.70
76603;BME280;65075;48.390;17.598;2023-02-13T03:47:54;101805.66;;;5.45;56.41
76603;BME280;65075;48.390;17.598;2023-02-13T03:50:23;101811.34;;;5.04;57.38
76603;BME280;65075;48.390;17.598;2023-02-13T03:53:05;101807.59;;;5.73;54.88
76603;BME280;65075;48.390;17.598;2023-02-13T03:55:37;101797.00;;;5.87;54.82
76603;BME280;65075;48.390;17.598;2023-02-13T03:58:38;101801.53;;;5.49;56.05
76603;BME280;65075;48.390;17.598;2023-02-13T04:01:28;101804.19;;;5.11;58.22
76603;BME280;65075;48.390;17.598;2023-02-13T04:04:18;101808.06;;;6.29;53.36
76603;BME280;65075;48.390;17.598;2023-02-13T04:06:54;101804.34;;;4.56;57.99
76603;BME280;65075;48.390;17.598;2023-02-13T04:09:24;101808.38;;;3.97;61.52
76603;BME280;65075;48.390;17.598;2023-02-13T04:12:20;101811.13;;;4.44;59.41
76603;BME280;65075;48.390;17.598;2023-02-13T04:14:53;101795.59;;;3.83;61.74
76603;BME280;65075;48.390;17.598;2023-02-13T04:17:32;101812.16;;;4.74;60.54
76603;BME280;65075;48.390;17.598;2023-02-13T04:19:59;101810.69;;;6.08;55.77
76603;BME280;65075;48.390;17.598;2023-02-13T04:22:25;101808.97;;;5.69;56.23
76603;BME280;65075;48.390;17.598;2023-02-13T04:24:50;101811.72;;;5.84;56.22
76603;BME280;65075;48.390;17.598;2023-02-13T04:27:17;101798.94;;;4.87;57.59
76603;BME280;65075;48.390;17.598;2023-02-13T04:29:43;101809.31;;;5.29;56.63
76603;BME280;65075;48.390;17.598;2023-02-13T04:32:09;101803.88;;;3.66;62.98
76603;BME280;65075;48.390;17.598;2023-02-13T04:34:35;101813.81;;;4.52;60.83
76603;BME280;65075;48.390;17.598;2023-02-13T04:37:01;101797.91;;;5.79;55.92
76603;BME280;65075;48.390;17.598;2023-02-13T04:39:27;101803.22;;;6.24;54.34
76603;BME280;65075;48.390;17.598;2023-02-13T04:41:52;101797.59;;;6.11;55.15
76603;BME280;65075;48.390;17.598;2023-02-13T04:44:18;101790.78;;;5.41;55.95
76603;BME280;65075;48.390;17.598;2023-02-13T04:46:43;101806.44;;;1.93;68.36
76603;BME280;65075;48.390;17.598;2023-02-13T04:49:09;101800.34;;;0.87;76.51
76603;BME280;65075;48.390;17.598;2023-02-13T04:51:35;101803.50;;;0.82;75.90
76603;BME280;65075;48.390;17.598;2023-02-13T04:54:00;101809.16;;;0.52;77.70
76603;BME280;65075;48.390;17.598;2023-02-13T04:56:26;101805.94;;;0.76;77.66
76603;BME280;65075;48.390;17.598;2023-02-13T04:58:53;101813.25;;;0.29;77.92
76603;BME280;65075;48.390;17.598;2023-02-13T05:01:19;101802.56;;;0.46;78.31
76603;BME280;65075;48.390;17.598;2023-02-13T05:03:44;101809.72;;;0.55;77.58
76603;BME280;65075;48.390;17.598;2023-02-13T05:06:10;101801.13;;;0.97;78.64
76603;BME280;65075;48.390;17.598;2023-02-13T05:08:36;101810.47;;;0.93;77.45
76603;BME280;65075;48.390;17.598;2023-02-13T05:11:02;101813.84;;;1.65;75.95
76603;BME280;65075;48.390;17.598;2023-02-13T05:13:27;101814.75;;;1.74;75.34
76603;BME280;65075;48.390;17.598;2023-02-13T05:15:53;101795.34;;;2.22;74.18
76603;BME280;65075;48.390;17.598;2023-02-13T05:18:18;101804.69;;;1.41;75.56
76603;BME280;65075;48.390;17.598;2023-02-13T05:20:44;101796.66;;;2.18;73.11
76603;BME280;65075;48.390;17.598;2023-02-13T05:23:13;101804.34;;;2.47;74.58
76603;BME280;65075;48.390;17.598;2023-02-13T05:25:49;101796.72;;;4.13;67.31
76603;BME280;65075;48.390;17.598;2023-02-13T05:28:15;101799.69;;;3.47;68.61
76603;BME280;65075;48.390;17.598;2023-02-13T05:30:59;101810.75;;;2.96;68.95
76603;BME280;65075;48.390;17.598;2023-02-13T05:33:25;101808.63;;;4.35;63.98
76603;BME280;65075;48.390;17.598;2023-02-13T05:35:51;101804.22;;;3.63;66.77
76603;BME280;65075;48.390;17.598;2023-02-13T05:38:17;101815.59;;;4.68;61.86
76603;BME280;65075;48.390;17.598;2023-02-13T05:40:42;101816.09;;;5.25;60.50
76603;BME280;65075;48.390;17.598;2023-02-13T05:43:08;101827.16;;;3.91;65.09
76603;BME280;65075;48.390;17.598;2023-02-13T05:45:33;101826.47;;;3.24;66.50
76603;BME280;65075;48.390;17.598;2023-02-13T05:47:59;101825.94;;;3.05;69.10
76603;BME280;65075;48.390;17.598;2023-02-13T05:50:24;101827.22;;;2.43;70.02
76603;BME280;65075;48.390;17.598;2023-02-13T05:52:50;101824.97;;;4.49;63.66
76603;BME280;65075;48.390;17.598;2023-02-13T05:55:16;101822.38;;;4.09;65.05
76603;BME280;65075;48.390;17.598;2023-02-13T05:57:41;101831.13;;;4.27;64.11
76603;BME280;65075;48.390;17.598;2023-02-13T06:00:07;101828.16;;;2.59;68.74
76603;BME280;65075;48.390;17.598;2023-02-13T06:02:33;101838.44;;;3.22;68.76
76603;BME280;65075;48.390;17.598;2023-02-13T06:04:58;101828.38;;;5.36;61.45
76603;BME280;65075;48.390;17.598;2023-02-13T06:17:45;101845.47;;;5.59;59.85
76603;BME280;65075;48.390;17.598;2023-02-13T06:20:11;101838.34;;;4.35;62.93
76603;BME280;65075;48.390;17.598;2023-02-13T06:22:37;101847.03;;;5.31;60.68
76603;BME280;65075;48.390;17.598;2023-02-13T06:25:02;101830.19;;;3.64;64.35
76603;BME280;65075;48.390;17.598;2023-02-13T06:27:28;101848.25;;;3.87;66.20
76603;BME280;65075;48.390;17.598;2023-02-13T06:29:54;101850.19;;;4.26;63.69
76603;BME280;65075;48.390;17.598;2023-02-13T06:32:19;101848.03;;;4.76;63.75
76603;BME280;65075;48.390;17.598;2023-02-13T06:34:45;101838.97;;;4.53;63.34
76603;BME280;65075;48.390;17.598;2023-02-13T06:37:10;101847.53;;;2.63;69.95
76603;BME280;65075;48.390;17.598;2023-02-13T06:39:36;101863.06;;;4.16;65.66
76603;BME280;65075;48.390;17.598;2023-02-13T06:42:01;101851.09;;;3.86;66.72
76603;BME280;65075;48.390;17.598;2023-02-13T06:44:27;101848.78;;;3.51;66.91
76603;BME280;65075;48.390;17.598;2023-02-13T06:46:52;101857.03;;;1.46;75.28
76603;BME280;65075;48.390;17.598;2023-02-13T06:49:18;101845.34;;;1.99;73.50
76603;BME280;65075;48.390;17.598;2023-02-13T06:51:43;101851.22;;;1.33;75.94
76603;BME280;65075;48.390;17.598;2023-02-13T06:54:09;101824.75;;;3.07;71.07
76603;BME280;65075;48.390;17.598;2023-02-13T06:56:34;101850.63;;;3.90;67.95
76603;BME280;65075;48.390;17.598;2023-02-13T06:59:00;101834.41;;;3.74;68.26
76603;BME280;65075;48.390;17.598;2023-02-13T07:01:26;101833.03;;;4.96;63.57
76603;BME280;65075;48.390;17.598;2023-02-13T07:03:51;101839.78;;;5.46;61.25
76603;BME280;65075;48.390;17.598;2023-02-13T07:06:18;101844.38;;;5.45;61.65
76603;BME280;65075;48.390;17.598;2023-02-13T07:08:44;101830.63;;;5.01;61.84
76603;BME280;65075;48.390;17.598;2023-02-13T07:11:22;101838.88;;;4.77;63.68
76603;BME280;65075;48.390;17.598;2023-02-13T07:13:48;101846.09;;;4.46;63.25
76603;BME280;65075;48.390;17.598;2023-02-13T07:16:14;101856.28;;;5.36;61.73
76603;BME280;65075;48.390;17.598;2023-02-13T07:18:42;101858.13;;;4.82;62.52
76603;BME280;65075;48.390;17.598;2023-02-13T07:21:08;101838.38;;;5.35;61.13
76603;BME280;65075;48.390;17.598;2023-02-13T07:23:33;101855.31;;;4.13;66.10
76603;BME280;65075;48.390;17.598;2023-02-13T07:25:59;101839.47;;;4.01;66.27
76603;BME280;65075;48.390;17.598;2023-02-13T07:28:26;101847.28;;;4.43;64.45
76603;BME280;65075;48.390;17.598;2023-02-13T07:30:52;101855.88;;;5.25;62.43
76603;BME280;65075;48.390;17.598;2023-02-13T07:33:18;101846.47;;;4.35;65.69
76603;BME280;65075;48.390;17.598;2023-02-13T07:35:48;101857.72;;;3.59;66.85
76603;BME280;65075;48.390;17.598;2023-02-13T07:38:14;101854.00;;;4.94;64.11
76603;BME280;65075;48.390;17.598;2023-02-13T07:40:40;101832.72;;;3.57;65.93
76603;BME280;65075;48.390;17.598;2023-02-13T07:43:06;101844.16;;;5.01;61.54
76603;BME280;65075;48.390;17.598;2023-02-13T07:45:32;101851.47;;;4.54;66.00
76603;BME280;65075;48.390;17.598;2023-02-13T07:47:58;101840.94;;;3.07;69.61
76603;BME280;65075;48.390;17.598;2023-02-13T07:50:24;101859.81;;;5.37;62.07
76603;BME280;65075;48.390;17.598;2023-02-13T07:52:53;101868.56;;;5.92;61.50
76603;BME280;65075;48.390;17.598;2023-02-13T07:55:19;101868.84;;;3.56;69.00
76603;BME280;65075;48.390;17.598;2023-02-13T07:57:45;101854.28;;;4.05;68.19
76603;BME280;65075;48.390;17.598;2023-02-13T08:00:11;101858.22;;;3.79;67.69
76603;BME280;65075;48.390;17.598;2023-02-13T08:02:37;101874.38;;;4.74;65.72
76603;BME280;65075;48.390;17.598;2023-02-13T08:05:06;101868.00;;;4.67;64.44
76603;BME280;65075;48.390;17.598;2023-02-13T08:07:32;101888.31;;;5.78;60.67
76603;BME280;65075;48.390;17.598;2023-02-13T08:09:57;101867.38;;;4.49;64.70
76603;BME280;65075;48.390;17.598;2023-02-13T08:12:41;101860.81;;;4.35;66.37
76603;BME280;65075;48.390;17.598;2023-02-13T08:15:12;101849.78;;;4.53;66.11
76603;BME280;65075;48.390;17.598;2023-02-13T08:17:38;101866.88;;;5.46;63.67
76603;BME280;65075;48.390;17.598;2023-02-13T08:20:06;101870.78;;;6.26;60.13
76603;BME280;65075;48.390;17.598;2023-02-13T08:22:36;101861.66;;;4.36;65.67
76603;BME280;65075;48.390;17.598;2023-02-13T08:25:03;101873.84;;;3.27;70.81
76603;BME280;65075;48.390;17.598;2023-02-13T08:27:29;101876.53;;;3.19;69.32
76603;BME280;65075;48.390;17.598;2023-02-13T08:29:56;101859.47;;;3.02;71.33
76603;BME280;65075;48.390;17.598;2023-02-13T08:32:22;101863.41;;;3.88;68.60
76603;BME280;65075;48.390;17.598;2023-02-13T08:34:48;101872.03;;;2.85;71.93
76603;BME280;65075;48.390;17.598;2023-02-13T08:37:14;101861.75;;;2.81;73.18
76603;BME280;65075;48.390;17.598;2023-02-13T08:39:40;101846.34;;;4.67;65.58
76603;BME280;65075;48.390;17.598;2023-02-13T08:42:06;101863.75;;;4.73;65.88
76603;BME280;65075;48.390;17.598;2023-02-13T08:44:31;101824.06;;;4.65;66.41
76603;BME280;65075;48.390;17.598;2023-02-13T08:46:57;101855.44;;;5.36;64.25
76603;BME280;65075;48.390;17.598;2023-02-13T08:49:22;101848.84;;;6.36;60.43
76603;BME280;65075;48.390;17.598;2023-02-13T08:51:49;101816.31;;;4.93;65.16
76603;BME280;65075;48.390;17.598;2023-02-13T08:54:15;101821.16;;;5.73;62.35
76603;BME280;65075;48.390;17.598;2023-02-13T08:56:41;101853.25;;;4.23;69.03
76603;BME280;65075;48.390;17.598;2023-02-13T08:59:07;101852.97;;;3.53;71.17
76603;BME280;65075;48.390;17.598;2023-02-13T09:01:32;101847.97;;;4.84;67.20
76603;BME280;65075;48.390;17.598;2023-02-13T09:03:58;101846.34;;;5.29;64.59
76603;BME280;65075;48.390;17.598;2023-02-13T09:06:24;101867.16;;;4.97;65.95
76603;BME280;65075;48.390;17.598;2023-02-13T09:08:51;101854.97;;;4.08;69.04
76603;BME280;65075;48.390;17.598;2023-02-13T09:11:16;101818.16;;;6.20;62.42
76603;BME280;65075;48.390;17.598;2023-02-13T09:13:44;101856.91;;;4.46;67.82
76603;BME280;65075;48.390;17.598;2023-02-13T09:16:10;101856.63;;;6.01;63.05
76603;BME280;65075;48.390;17.598;2023-02-13T09:18:36;101868.91;;;6.12;62.49
76603;BME280;65075;48.390;17.598;2023-02-13T09:21:03;101871.06;;;6.89;60.85
76603;BME280;65075;48.390;17.598;2023-02-13T09:23:34;101858.94;;;6.42;59.55
76603;BME280;65075;48.390;17.598;2023-02-13T09:26:01;101864.34;;;6.71;60.90
76603;BME280;65075;48.390;17.598;2023-02-13T09:28:32;101872.28;;;7.80;57.21
76603;BME280;65075;48.390;17.598;2023-02-13T09:30:58;101873.16;;;7.23;58.15
76603;BME280;65075;48.390;17.598;2023-02-13T09:33:25;101865.38;;;6.84;59.67
76603;BME280;65075;48.390;17.598;2023-02-13T09:35:51;101866.41;;;6.40;61.25
76603;BME280;65075;48.390;17.598;2023-02-13T09:38:17;101880.78;;;6.25;61.86
76603;BME280;65075;48.390;17.598;2023-02-13T09:40:54;101881.69;;;5.58;64.48
76603;BME280;65075;48.390;17.598;2023-02-13T09:43:31;101863.88;;;5.41;64.45
76603;BME280;65075;48.390;17.598;2023-02-13T09:46:16;101877.69;;;5.46;64.15
76603;BME280;65075;48.390;17.598;2023-02-13T09:48:46;101866.34;;;5.73;63.15
76603;BME280;65075;48.390;17.598;2023-02-13T09:51:18;101881.09;;;4.31;68.94
76603;BME280;65075;48.390;17.598;2023-02-13T09:53:57;101882.59;;;5.73;64.59
76603;BME280;65075;48.390;17.598;2023-02-13T09:56:35;101882.25;;;5.99;62.92
76603;BME280;65075;48.390;17.598;2023-02-13T10:02:01;101870.53;;;5.30;66.07
76603;BME280;65075;48.390;17.598;2023-02-13T10:16:34;101861.69;;;8.75;56.42
76603;BME280;65075;48.390;17.598;2023-02-13T10:19:15;101853.03;;;8.58;56.43
76603;BME280;65075;48.390;17.598;2023-02-13T10:22:06;101848.59;;;7.95;57.29
76603;BME280;65075;48.390;17.598;2023-02-13T10:24:36;101859.00;;;6.77;63.17
76603;BME280;65075;48.390;17.598;2023-02-13T10:27:18;101847.25;;;7.84;59.64
76603;BME280;65075;48.390;17.598;2023-02-13T10:29:53;101845.72;;;6.68;62.80
76603;BME280;65075;48.390;17.598;2023-02-13T10:32:54;101845.16;;;8.35;58.37
76603;BME280;65075;48.390;17.598;2023-02-13T10:38:34;101841.63;;;8.41;58.30
76603;BME280;65075;48.390;17.598;2023-02-13T10:41:18;101838.25;;;9.34;55.44
76603;BME280;65075;48.390;17.598;2023-02-13T10:58:05;101831.63;;;8.21;61.34
76603;BME280;65075;48.390;17.598;2023-02-13T11:00:49;101829.50;;;8.16;60.15
76603;BME280;65075;48.390;17.598;2023-02-13T11:03:20;101824.19;;;9.31;57.30
76603;BME280;65075;48.390;17.598;2023-02-13T11:05:47;101809.38;;;10.96;52.72
76603;BME280;65075;48.390;17.598;2023-02-13T11:10:44;101819.25;;;7.41;63.10
76603;BME280;65075;48.390;17.598;2023-02-13T11:13:24;101820.09;;;8.46;59.64
76603;BME280;65075;48.390;17.598;2023-02-13T11:16:03;101809.66;;;7.45;63.68
76603;BME280;65075;48.390;17.598;2023-02-13T11:18:39;101810.97;;;7.07;65.28
76603;BME280;65075;48.390;17.598;2023-02-13T11:21:32;101795.41;;;7.86;64.10
76603;BME280;65075;48.390;17.598;2023-02-13T11:24:02;101796.44;;;8.13;62.82
76603;BME280;65075;48.390;17.598;2023-02-13T11:26:34;101794.28;;;8.77;61.71
76603;BME280;65075;48.390;17.598;2023-02-13T11:29:05;101772.88;;;7.92;62.56
76603;BME280;65075;48.390;17.598;2023-02-13T11:31:40;101782.66;;;7.37;65.38
76603;BME280;65075;48.390;17.598;2023-02-13T11:34:24;101787.31;;;8.27;63.85
76603;BME280;65075;48.390;17.598;2023-02-13T11:36:52;101756.25;;;8.96;59.97
76603;BME280;65075;48.390;17.598;2023-02-13T11:39:21;101761.78;;;9.29;59.10
76603;BME280;65075;48.390;17.598;2023-02-13T11:41:48;101776.91;;;9.64;57.91
76603;BME280;65075;48.390;17.598;2023-02-13T11:46:50;101762.63;;;9.49;59.92
76603;BME280;65075;48.390;17.598;2023-02-13T11:49:23;101766.38;;;10.01;57.64
76603;BME280;65075;48.390;17.598;2023-02-13T11:51:52;101771.59;;;11.24;53.49
76603;BME280;65075;48.390;17.598;2023-02-13T11:54:41;101767.03;;;11.42;49.89
76603;BME280;65075;48.390;17.598;2023-02-13T11:59:47;101762.69;;;14.17;43.70
76603;BME280;65075;48.390;17.598;2023-02-13T12:02:15;101766.50;;;14.40;43.12
76603;BME280;65075;48.390;17.598;2023-02-13T12:04:41;101767.38;;;12.81;46.11
76603;BME280;65075;48.390;17.598;2023-02-13T12:07:21;101761.63;;;13.01;45.51
76603;BME280;65075;48.390;17.598;2023-02-13T12:10:00;101755.00;;;12.24;46.48
76603;BME280;65075;48.390;17.598;2023-02-13T12:15:33;101753.47;;;10.98;50.78
76603;BME280;65075;48.390;17.598;2023-02-13T12:23:30;101733.78;;;10.89;49.81
76603;BME280;65075;48.390;17.598;2023-02-13T12:26:28;101731.47;;;13.31;44.89
76603;BME280;65075;48.390;17.598;2023-02-13T12:32:18;101726.47;;;11.15;48.57
76603;BME280;65075;48.390;17.598;2023-02-13T12:46:08;101713.19;;;12.65;43.31
76603;BME280;65075;48.390;17.598;2023-02-13T12:54:03;101691.50;;;11.97;43.50
76603;BME280;65075;48.390;17.598;2023-02-13T12:56:49;101691.38;;;12.88;41.54
76603;BME280;65075;48.390;17.598;2023-02-13T13:13:19;101702.69;;;11.46;45.25
76603;BME280;65075;48.390;17.598;2023-02-13T13:19:09;101699.38;;;11.87;45.22
76603;BME280;65075;48.390;17.598;2023-02-13T13:21:47;101700.88;;;11.59;46.07
76603;BME280;65075;48.390;17.598;2023-02-13T13:24:32;101705.50;;;12.44;44.02
76603;BME280;65075;48.390;17.598;2023-02-13T13:27:02;101709.00;;;12.33;44.63
76603;BME280;65075;48.390;17.598;2023-02-13T13:29:44;101702.41;;;11.55;46.44
76603;BME280;65075;48.390;17.598;2023-02-13T13:32:17;101699.38;;;11.87;46.32
76603;BME280;65075;48.390;17.598;2023-02-13T13:34:46;101700.84;;;11.40;46.83
76603;BME280;65075;48.390;17.598;2023-02-13T13:37:35;101695.19;;;11.60;47.58
76603;BME280;65075;48.390;17.598;2023-02-13T13:40:05;101692.56;;;10.91;48.85
76603;BME280;65075;48.390;17.598;2023-02-13T13:42:59;101702.66;;;10.90;48.68
76603;BME280;65075;48.390;17.598;2023-02-13T13:45:44;101685.94;;;11.61;47.66
76603;BME280;65075;48.390;17.598;2023-02-13T13:48:34;101697.59;;;11.50;47.76
76603;BME280;65075;48.390;17.598;2023-02-13T13:51:11;101686.53;;;11.63;47.00
76603;BME280;65075;48.390;17.598;2023-02-13T13:56:24;101689.78;;;11.29;47.90
76603;BME280;65075;48.390;17.598;2023-02-13T13:58:49;101688.47;;;11.38;48.33
76603;BME280;65075;48.390;17.598;2023-02-13T14:01:27;101698.88;;;10.91;49.09
76603;BME280;65075;48.390;17.598;2023-02-13T14:04:01;101704.78;;;11.44;48.36
76603;BME280;65075;48.390;17.598;2023-02-13T14:09:00;101699.31;;;11.20;49.58
76603;BME280;65075;48.390;17.598;2023-02-13T14:11:39;101691.47;;;11.30;49.61
76603;BME280;65075;48.390;17.598;2023-02-13T14:16:57;101696.50;;;11.02;50.14
76603;BME280;65075;48.390;17.598;2023-02-13T14:19:36;101696.03;;;10.73;50.97
76603;BME280;65075;48.390;17.598;2023-02-13T14:24:54;101708.13;;;10.90;50.67
76603;BME280;65075;48.390;17.598;2023-02-13T14:27:24;101704.56;;;10.52;50.94
76603;BME280;65075;48.390;17.598;2023-02-13T14:29:51;101704.22;;;10.73;51.16
76603;BME280;65075;48.390;17.598;2023-02-13T14:32:31;101707.22;;;10.21;52.21
76603;BME280;65075;48.390;17.598;2023-02-13T14:35:17;101695.94;;;11.24;50.52
76603;BME280;65075;48.390;17.598;2023-02-13T14:37:54;101682.38;;;10.73;50.60
76603;BME280;65075;48.390;17.598;2023-02-13T14:43:30;101656.81;;;10.30;51.13
76603;BME280;65075;48.390;17.598;2023-02-13T14:46:21;101692.88;;;10.32;52.20
76603;BME280;65075;48.390;17.598;2023-02-13T14:49:06;101689.56;;;10.30;52.34
76603;BME280;65075;48.390;17.598;2023-02-13T14:51:43;101698.59;;;10.11;52.09
76603;BME280;65075;48.390;17.598;2023-02-13T14:54:23;101697.41;;;10.51;51.78
76603;BME280;65075;48.390;17.598;2023-02-13T14:56:53;101704.28;;;10.16;52.61
76603;BME280;65075;48.390;17.598;2023-02-13T14:59:28;101703.41;;;10.22;51.99
76603;BME280;65075;48.390;17.598;2023-02-13T15:02:14;101682.97;;;9.60;53.36
76603;BME280;65075;48.390;17.598;2023-02-13T15:04:45;101707.63;;;10.05;53.06
76603;BME280;65075;48.390;17.598;2023-02-13T15:07:22;101690.41;;;10.68;50.69
76603;BME280;65075;48.390;17.598;2023-02-13T15:09:54;101692.47;;;10.35;52.26
76603;BME280;65075;48.390;17.598;2023-02-13T15:12:32;101706.81;;;10.62;51.44
76603;BME280;65075;48.390;17.598;2023-02-13T15:15:25;101691.16;;;10.44;51.34
76603;BME280;65075;48.390;17.598;2023-02-13T15:18:07;101710.19;;;10.57;50.93
76603;BME280;65075;48.390;17.598;2023-02-13T15:20:36;101705.50;;;10.33;51.81
76603;BME280;65075;48.390;17.598;2023-02-13T15:23:05;101710.41;;;10.93;50.32
76603;BME280;65075;48.390;17.598;2023-02-13T15:25:36;101702.16;;;11.07;50.74